createdAt,value
2017-05-25T00:00:07.128Z,18
2017-05-25T00:00:33.254Z,18.03
2017-05-25T00:00:59.362Z,17.92
2017-05-25T00:01:25.454Z,18.01
2017-05-25T00:01:51.576Z,17.95
2017-05-25T00:02:17.672Z,18
2017-05-25T00:02:43.775Z,17.92
2017-05-25T00:03:09.935Z,17.97
2017-05-25T00:03:36.052Z,18
2017-05-25T00:04:02.203Z,17.94
2017-05-25T00:04:28.368Z,17.95
2017-05-25T00:04:54.535Z,17.92
2017-05-25T00:05:20.631Z,17.94
2017-05-25T00:05:46.737Z,17.95
2017-05-25T00:06:12.881Z,17.92
2017-05-25T00:06:39.020Z,17.85
2017-05-25T00:07:05.160Z,17.83
2017-05-25T00:07:31.285Z,17.89
2017-05-25T00:07:57.436Z,17.85
2017-05-25T00:08:23.580Z,17.8
2017-05-25T00:08:49.702Z,17.8
2017-05-25T00:09:15.834Z,17.86
2017-05-25T00:09:41.956Z,17.86
2017-05-25T00:10:08.074Z,17.82
2017-05-25T00:10:34.210Z,17.79
2017-05-25T00:11:00.307Z,17.8
2017-05-25T00:11:26.422Z,17.79
2017-05-25T00:11:52.583Z,17.87
2017-05-25T00:12:18.684Z,17.83
2017-05-25T00:12:44.775Z,17.78
2017-05-25T00:13:10.878Z,17.79
2017-05-25T00:13:37.021Z,17.79
2017-05-25T00:14:03.158Z,17.89
2017-05-25T00:14:29.281Z,17.8
2017-05-25T00:14:55.398Z,17.82
2017-05-25T00:15:21.529Z,17.8
2017-05-25T00:15:47.656Z,17.76
2017-05-25T00:16:13.747Z,17.8
2017-05-25T00:16:39.875Z,17.85
2017-05-25T00:17:06.008Z,17.78
2017-05-25T00:17:32.121Z,17.79
2017-05-25T00:17:58.273Z,17.86
2017-05-25T00:18:24.463Z,17.79
2017-05-25T00:18:50.603Z,17.72
2017-05-25T00:19:16.763Z,17.8
2017-05-25T00:19:42.904Z,17.78
2017-05-25T00:20:09.030Z,17.79
2017-05-25T00:20:35.138Z,17.78
2017-05-25T00:21:01.253Z,17.82
2017-05-25T00:21:27.379Z,17.74
2017-05-25T00:21:53.487Z,17.76
2017-05-25T00:22:19.605Z,17.78
2017-05-25T00:22:45.703Z,17.78
2017-05-25T00:23:11.811Z,17.74
2017-05-25T00:23:37.933Z,17.7
2017-05-25T00:24:04.051Z,17.76
2017-05-25T00:24:30.236Z,17.74
2017-05-25T00:24:56.364Z,17.67
2017-05-25T00:25:22.499Z,17.79
2017-05-25T00:25:48.613Z,17.78
2017-05-25T00:26:14.735Z,17.71
2017-05-25T00:26:40.870Z,17.57
2017-05-25T00:27:06.962Z,17.57
2017-05-25T00:27:33.054Z,17.64
2017-05-25T00:27:59.220Z,17.59
2017-05-25T00:28:25.344Z,17.67
2017-05-25T00:28:51.435Z,17.6
2017-05-25T00:29:17.586Z,17.7
2017-05-25T00:29:43.686Z,17.6
2017-05-25T00:30:09.813Z,17.65
2017-05-25T00:30:35.933Z,17.57
2017-05-25T00:31:02.050Z,17.54
2017-05-25T00:31:28.160Z,17.54
2017-05-25T00:31:54.257Z,17.45
2017-05-25T00:32:20.398Z,17.51
2017-05-25T00:32:46.584Z,17.57
2017-05-25T00:33:12.711Z,17.48
2017-05-25T00:33:38.849Z,17.44
2017-05-25T00:34:04.954Z,17.51
2017-05-25T00:34:31.089Z,17.48
2017-05-25T00:34:57.178Z,17.48
2017-05-25T00:35:23.300Z,17.52
2017-05-25T00:35:49.393Z,17.46
2017-05-25T00:36:15.553Z,17.52
2017-05-25T00:36:41.681Z,17.48
2017-05-25T00:37:07.796Z,17.46
2017-05-25T00:37:33.925Z,17.52
2017-05-25T00:38:00.064Z,17.54
2017-05-25T00:38:26.180Z,17.45
2017-05-25T00:38:52.306Z,17.38
2017-05-25T00:39:18.494Z,17.52
2017-05-25T00:39:44.663Z,17.52
2017-05-25T00:40:10.759Z,17.45
2017-05-25T00:40:36.866Z,17.41
2017-05-25T00:41:03.040Z,17.39
2017-05-25T00:41:29.130Z,17.48
2017-05-25T00:41:55.266Z,17.48
2017-05-25T00:42:21.365Z,17.49
2017-05-25T00:42:47.502Z,17.48
2017-05-25T00:43:13.610Z,17.48
2017-05-25T00:43:39.765Z,17.49
2017-05-25T00:44:05.855Z,17.49
2017-05-25T00:44:32.013Z,17.56
2017-05-25T00:44:58.172Z,17.41
2017-05-25T00:45:24.286Z,17.51
2017-05-25T00:45:50.386Z,17.48
2017-05-25T00:46:16.493Z,17.49
2017-05-25T00:46:42.638Z,17.44
2017-05-25T00:47:08.766Z,17.48
2017-05-25T00:47:34.856Z,17.51
2017-05-25T00:48:01.010Z,17.42
2017-05-25T00:48:27.146Z,17.45
2017-05-25T00:48:53.288Z,17.44
2017-05-25T00:49:19.410Z,17.42
2017-05-25T00:49:45.517Z,17.36
2017-05-25T00:50:11.639Z,17.46
2017-05-25T00:50:37.755Z,17.41
2017-05-25T00:51:03.946Z,17.36
2017-05-25T00:51:30.068Z,17.42
2017-05-25T00:51:56.159Z,17.41
2017-05-25T00:52:22.292Z,17.42
2017-05-25T00:52:48.415Z,17.36
2017-05-25T00:53:14.522Z,17.41
2017-05-25T00:53:40.613Z,17.38
2017-05-25T00:54:06.759Z,17.46
2017-05-25T00:54:32.925Z,17.38
2017-05-25T00:54:59.075Z,17.33
2017-05-25T00:55:25.263Z,17.31
2017-05-25T00:55:51.399Z,17.36
2017-05-25T00:56:17.521Z,17.38
2017-05-25T00:56:43.611Z,17.38
2017-05-25T00:57:09.740Z,17.31
2017-05-25T00:57:35.868Z,17.38
2017-05-25T00:58:01.993Z,17.33
2017-05-25T00:58:28.141Z,17.27
2017-05-25T00:58:54.257Z,17.3
2017-05-25T00:59:20.393Z,17.31
2017-05-25T00:59:46.514Z,17.36
2017-05-25T01:00:12.631Z,17.31
2017-05-25T01:00:38.739Z,17.33
2017-05-25T01:01:04.866Z,17.34
2017-05-25T01:01:30.973Z,17.34
2017-05-25T01:01:57.105Z,17.36
2017-05-25T01:02:23.238Z,17.36
2017-05-25T01:02:49.375Z,17.38
2017-05-25T01:03:15.523Z,17.31
2017-05-25T01:03:41.639Z,17.29
2017-05-25T01:04:07.746Z,17.3
2017-05-25T01:04:33.875Z,17.27
2017-05-25T01:05:00.016Z,17.24
2017-05-25T01:05:26.143Z,17.24
2017-05-25T01:05:52.280Z,17.27
2017-05-25T01:06:18.392Z,17.22
2017-05-25T01:06:44.492Z,17.23
2017-05-25T01:07:10.601Z,17.16
2017-05-25T01:07:36.690Z,17.15
2017-05-25T01:08:02.856Z,17.05
2017-05-25T01:08:28.991Z,17.16
2017-05-25T01:08:55.138Z,17.15
2017-05-25T01:09:21.269Z,17.11
2017-05-25T01:09:47.383Z,17.2
2017-05-25T01:10:13.506Z,17.16
2017-05-25T01:10:39.639Z,17.19
2017-05-25T01:11:05.730Z,17.22
2017-05-25T01:11:31.827Z,17.19
2017-05-25T01:11:57.960Z,17.09
2017-05-25T01:12:24.056Z,17.11
2017-05-25T01:12:50.172Z,17.14
2017-05-25T01:13:16.338Z,17.12
2017-05-25T01:13:42.463Z,17.04
2017-05-25T01:14:08.552Z,17.02
2017-05-25T01:14:34.659Z,16.94
2017-05-25T01:15:00.752Z,16.94
2017-05-25T01:15:26.858Z,16.94
2017-05-25T01:15:53.030Z,17.02
2017-05-25T01:16:19.122Z,16.94
2017-05-25T01:16:45.285Z,16.87
2017-05-25T01:17:11.430Z,17.01
2017-05-25T01:17:37.520Z,16.93
2017-05-25T01:18:03.654Z,16.87
2017-05-25T01:18:29.757Z,17.02
2017-05-25T01:18:55.846Z,16.96
2017-05-25T01:19:22.002Z,16.96
2017-05-25T01:19:48.134Z,16.96
2017-05-25T01:20:14.256Z,16.99
2017-05-25T01:20:40.382Z,16.91
2017-05-25T01:21:06.473Z,16.87
2017-05-25T01:21:32.606Z,16.93
2017-05-25T01:21:58.733Z,17.01
2017-05-25T01:22:24.823Z,16.87
2017-05-25T01:22:50.927Z,16.81
2017-05-25T01:23:17.033Z,16.84
2017-05-25T01:23:43.149Z,16.87
2017-05-25T01:24:09.352Z,16.87
2017-05-25T01:24:35.459Z,16.86
2017-05-25T01:25:01.573Z,16.84
2017-05-25T01:25:27.671Z,16.84
2017-05-25T01:25:53.778Z,16.87
2017-05-25T01:26:19.920Z,16.83
2017-05-25T01:26:46.038Z,16.84
2017-05-25T01:27:12.147Z,16.84
2017-05-25T01:27:38.290Z,16.87
2017-05-25T01:28:04.405Z,16.84
2017-05-25T01:28:30.539Z,16.84
2017-05-25T01:28:56.669Z,16.78
2017-05-25T01:29:22.787Z,16.79
2017-05-25T01:29:48.889Z,16.79
2017-05-25T01:30:15.081Z,16.71
2017-05-25T01:30:41.191Z,16.79
2017-05-25T01:31:07.257Z,16.86
2017-05-25T01:31:33.375Z,16.81
2017-05-25T01:31:59.481Z,16.72
2017-05-25T01:32:25.607Z,16.75
2017-05-25T01:32:51.727Z,16.74
2017-05-25T01:33:17.856Z,16.75
2017-05-25T01:33:43.987Z,16.75
2017-05-25T01:34:10.128Z,16.68
2017-05-25T01:34:36.302Z,16.69
2017-05-25T01:35:02.464Z,16.65
2017-05-25T01:35:28.607Z,16.68
2017-05-25T01:35:54.703Z,16.74
2017-05-25T01:36:20.865Z,16.71
2017-05-25T01:36:46.988Z,16.71
2017-05-25T01:37:13.101Z,16.72
2017-05-25T01:37:39.223Z,16.74
2017-05-25T01:38:05.347Z,16.71
2017-05-25T01:38:31.480Z,16.71
2017-05-25T01:38:57.597Z,16.86
2017-05-25T01:39:23.694Z,16.76
2017-05-25T01:39:49.802Z,16.74
2017-05-25T01:40:15.946Z,16.72
2017-05-25T01:40:42.061Z,16.71
2017-05-25T01:41:08.198Z,16.64
2017-05-25T01:41:34.322Z,16.64
2017-05-25T01:42:00.436Z,16.69
2017-05-25T01:42:26.541Z,16.66
2017-05-25T01:42:52.659Z,16.74
2017-05-25T01:43:18.794Z,16.81
2017-05-25T01:43:44.938Z,16.75
2017-05-25T01:44:11.077Z,16.72
2017-05-25T01:44:37.242Z,16.81
2017-05-25T01:45:03.336Z,16.71
2017-05-25T01:45:29.452Z,16.69
2017-05-25T01:45:55.557Z,16.69
2017-05-25T01:46:21.684Z,16.69
2017-05-25T01:46:47.825Z,16.65
2017-05-25T01:47:13.951Z,16.72
2017-05-25T01:47:40.059Z,16.72
2017-05-25T01:48:06.179Z,16.79
2017-05-25T01:48:32.299Z,16.75
2017-05-25T01:48:58.419Z,16.66
2017-05-25T01:49:24.578Z,16.68
2017-05-25T01:49:50.764Z,16.68
2017-05-25T01:50:16.901Z,16.68
2017-05-25T01:50:43.005Z,16.66
2017-05-25T01:51:09.112Z,16.68
2017-05-25T01:51:35.227Z,16.68
2017-05-25T01:52:01.332Z,16.64
2017-05-25T01:52:27.437Z,16.61
2017-05-25T01:52:53.580Z,16.71
2017-05-25T01:53:19.701Z,16.71
2017-05-25T01:53:45.853Z,16.65
2017-05-25T01:54:11.957Z,16.75
2017-05-25T01:54:38.090Z,16.65
2017-05-25T01:55:04.202Z,16.6
2017-05-25T01:55:30.330Z,16.6
2017-05-25T01:55:56.437Z,16.65
2017-05-25T01:56:22.527Z,16.58
2017-05-25T01:56:48.673Z,16.61
2017-05-25T01:57:14.780Z,16.65
2017-05-25T01:57:40.896Z,16.58
2017-05-25T01:58:06.986Z,16.65
2017-05-25T01:58:33.156Z,16.64
2017-05-25T01:58:59.278Z,16.57
2017-05-25T01:59:25.440Z,16.61
2017-05-25T01:59:51.581Z,16.56
2017-05-25T02:00:17.703Z,16.56
2017-05-25T02:00:43.810Z,16.65
2017-05-25T02:01:09.935Z,16.56
2017-05-25T02:01:36.070Z,16.64
2017-05-25T02:02:02.211Z,16.58
2017-05-25T02:02:28.359Z,16.61
2017-05-25T02:02:54.500Z,16.57
2017-05-25T02:03:20.641Z,16.58
2017-05-25T02:03:46.848Z,16.5
2017-05-25T02:04:12.941Z,16.51
2017-05-25T02:04:39.118Z,16.53
2017-05-25T02:05:05.208Z,16.57
2017-05-25T02:05:31.334Z,16.56
2017-05-25T02:05:57.433Z,16.53
2017-05-25T02:06:23.524Z,16.53
2017-05-25T02:06:49.630Z,16.51
2017-05-25T02:07:15.758Z,16.43
2017-05-25T02:07:41.875Z,16.42
2017-05-25T02:08:08.030Z,16.43
2017-05-25T02:08:34.193Z,16.51
2017-05-25T02:09:00.307Z,16.53
2017-05-25T02:09:26.406Z,16.53
2017-05-25T02:09:52.567Z,16.42
2017-05-25T02:10:18.657Z,16.49
2017-05-25T02:10:44.780Z,16.47
2017-05-25T02:11:10.886Z,16.53
2017-05-25T02:11:37.007Z,16.57
2017-05-25T02:12:03.099Z,16.6
2017-05-25T02:12:29.294Z,16.57
2017-05-25T02:12:55.391Z,16.58
2017-05-25T02:13:21.505Z,16.58
2017-05-25T02:13:47.642Z,16.54
2017-05-25T02:14:13.740Z,16.56
2017-05-25T02:14:39.879Z,16.56
2017-05-25T02:15:06.030Z,16.41
2017-05-25T02:15:32.164Z,16.56
2017-05-25T02:15:58.282Z,16.49
2017-05-25T02:16:24.429Z,16.41
2017-05-25T02:16:50.520Z,16.47
2017-05-25T02:17:16.680Z,16.61
2017-05-25T02:17:42.839Z,16.58
2017-05-25T02:18:08.978Z,16.51
2017-05-25T02:18:35.136Z,16.61
2017-05-25T02:19:01.274Z,16.58
2017-05-25T02:19:27.364Z,16.51
2017-05-25T02:19:53.510Z,16.51
2017-05-25T02:20:19.644Z,16.58
2017-05-25T02:20:45.760Z,16.54
2017-05-25T02:21:11.878Z,16.47
2017-05-25T02:21:38.004Z,16.53
2017-05-25T02:22:04.189Z,16.6
2017-05-25T02:22:30.319Z,16.42
2017-05-25T02:22:56.431Z,16.53
2017-05-25T02:23:22.530Z,16.54
2017-05-25T02:23:48.665Z,16.49
2017-05-25T02:24:14.786Z,16.56
2017-05-25T02:24:40.932Z,16.46
2017-05-25T02:25:07.092Z,16.42
2017-05-25T02:25:33.209Z,16.43
2017-05-25T02:25:59.301Z,16.43
2017-05-25T02:26:25.431Z,16.42
2017-05-25T02:26:51.907Z,16.47
2017-05-25T02:27:18.034Z,16.47
2017-05-25T02:27:44.151Z,16.49
2017-05-25T02:28:10.319Z,16.5
2017-05-25T02:28:36.453Z,16.47
2017-05-25T02:29:02.624Z,16.46
2017-05-25T02:29:28.787Z,16.51
2017-05-25T02:29:54.925Z,16.47
2017-05-25T02:30:21.049Z,16.46
2017-05-25T02:30:47.140Z,16.5
2017-05-25T02:31:13.271Z,16.49
2017-05-25T02:31:39.371Z,16.42
2017-05-25T02:32:05.485Z,16.46
2017-05-25T02:32:31.616Z,16.46
2017-05-25T02:32:57.707Z,16.43
2017-05-25T02:33:23.816Z,16.47
2017-05-25T02:33:49.913Z,16.51
2017-05-25T02:34:16.028Z,16.43
2017-05-25T02:34:42.161Z,16.49
2017-05-25T02:35:08.318Z,16.49
2017-05-25T02:35:34.407Z,16.51
2017-05-25T02:36:00.561Z,16.51
2017-05-25T02:36:26.669Z,16.64
2017-05-25T02:36:52.756Z,16.5
2017-05-25T02:37:18.882Z,16.58
2017-05-25T02:37:45.018Z,16.61
2017-05-25T02:38:11.186Z,16.61
2017-05-25T02:38:37.344Z,16.58
2017-05-25T02:39:03.510Z,16.53
2017-05-25T02:39:29.636Z,16.61
2017-05-25T02:39:55.772Z,16.6
2017-05-25T02:40:21.883Z,16.57
2017-05-25T02:40:48.006Z,16.51
2017-05-25T02:41:14.143Z,16.46
2017-05-25T02:41:40.234Z,16.47
2017-05-25T02:42:06.377Z,16.54
2017-05-25T02:42:32.508Z,16.58
2017-05-25T02:42:58.602Z,16.56
2017-05-25T02:43:24.719Z,16.47
2017-05-25T02:43:50.904Z,16.51
2017-05-25T02:44:17.003Z,16.58
2017-05-25T02:44:43.137Z,16.6
2017-05-25T02:45:09.307Z,16.56
2017-05-25T02:45:35.452Z,16.6
2017-05-25T02:46:01.558Z,16.65
2017-05-25T02:46:27.705Z,16.54
2017-05-25T02:46:53.796Z,16.51
2017-05-25T02:47:19.934Z,16.6
2017-05-25T02:47:46.061Z,16.6
2017-05-25T02:48:12.177Z,16.61
2017-05-25T02:48:38.363Z,16.6
2017-05-25T02:49:04.548Z,16.58
2017-05-25T02:49:30.671Z,16.64
2017-05-25T02:49:56.764Z,16.53
2017-05-25T02:50:22.880Z,16.57
2017-05-25T02:50:48.992Z,16.58
2017-05-25T02:51:15.091Z,16.6
2017-05-25T02:51:41.180Z,16.72
2017-05-25T02:52:07.317Z,16.72
2017-05-25T02:52:33.410Z,16.74
2017-05-25T02:52:59.528Z,16.69
2017-05-25T02:53:25.657Z,16.72
2017-05-25T02:53:51.790Z,16.72
2017-05-25T02:54:17.877Z,16.64
2017-05-25T02:54:43.977Z,16.69
2017-05-25T02:55:10.196Z,16.64
2017-05-25T02:55:36.287Z,16.66
2017-05-25T02:56:02.384Z,16.72
2017-05-25T02:56:28.492Z,16.68
2017-05-25T02:56:54.608Z,16.75
2017-05-25T02:57:20.697Z,16.74
2017-05-25T02:57:46.837Z,16.68
2017-05-25T02:58:12.992Z,16.68
2017-05-25T02:58:39.155Z,16.69
2017-05-25T02:59:05.285Z,16.72
2017-05-25T02:59:31.442Z,16.68
2017-05-25T02:59:57.606Z,16.69
2017-05-25T03:00:23.711Z,16.69
2017-05-25T03:00:49.828Z,16.75
2017-05-25T03:01:15.941Z,16.65
2017-05-25T03:01:42.066Z,16.78
2017-05-25T03:02:08.179Z,16.74
2017-05-25T03:02:34.284Z,16.79
2017-05-25T03:03:00.439Z,16.81
2017-05-25T03:03:26.556Z,16.79
2017-05-25T03:03:52.660Z,16.78
2017-05-25T03:04:18.823Z,16.74
2017-05-25T03:04:44.990Z,16.75
2017-05-25T03:05:11.092Z,16.74
2017-05-25T03:05:37.199Z,16.75
2017-05-25T03:06:03.342Z,16.75
2017-05-25T03:06:29.474Z,16.72
2017-05-25T03:06:55.563Z,16.76
2017-05-25T03:07:21.690Z,16.79
2017-05-25T03:07:47.801Z,16.81
2017-05-25T03:08:13.940Z,16.83
2017-05-25T03:08:40.041Z,16.81
2017-05-25T03:09:06.176Z,16.79
2017-05-25T03:09:32.292Z,16.84
2017-05-25T03:09:58.412Z,16.84
2017-05-25T03:10:24.545Z,16.81
2017-05-25T03:10:50.668Z,16.76
2017-05-25T03:11:16.761Z,16.81
2017-05-25T03:11:42.863Z,16.84
2017-05-25T03:12:08.963Z,16.79
2017-05-25T03:12:35.097Z,16.83
2017-05-25T03:13:01.240Z,16.83
2017-05-25T03:13:27.363Z,16.79
2017-05-25T03:13:53.526Z,16.78
2017-05-25T03:14:19.667Z,16.79
2017-05-25T03:14:45.808Z,16.83
2017-05-25T03:15:11.919Z,16.81
2017-05-25T03:15:38.018Z,16.81
2017-05-25T03:16:04.109Z,16.76
2017-05-25T03:16:30.251Z,16.81
2017-05-25T03:16:56.401Z,16.78
2017-05-25T03:17:22.555Z,16.81
2017-05-25T03:17:48.705Z,16.78
2017-05-25T03:18:14.846Z,16.84
2017-05-25T03:18:40.980Z,16.78
2017-05-25T03:19:07.136Z,16.86
2017-05-25T03:19:33.298Z,16.74
2017-05-25T03:19:59.405Z,16.81
2017-05-25T03:20:25.589Z,16.76
2017-05-25T03:20:51.681Z,16.75
2017-05-25T03:21:17.784Z,16.78
2017-05-25T03:21:43.919Z,16.76
2017-05-25T03:22:10.007Z,16.81
2017-05-25T03:22:36.133Z,16.84
2017-05-25T03:23:02.252Z,16.84
2017-05-25T03:23:28.389Z,16.84
2017-05-25T03:23:54.517Z,16.75
2017-05-25T03:24:20.637Z,16.81
2017-05-25T03:24:46.787Z,16.76
2017-05-25T03:25:12.921Z,16.83
2017-05-25T03:25:39.032Z,16.75
2017-05-25T03:26:05.155Z,16.81
2017-05-25T03:26:31.291Z,16.76
2017-05-25T03:26:57.432Z,16.79
2017-05-25T03:27:23.555Z,16.76
2017-05-25T03:27:49.687Z,16.75
2017-05-25T03:28:15.807Z,16.83
2017-05-25T03:28:41.923Z,16.76
2017-05-25T03:29:08.065Z,16.83
2017-05-25T03:29:34.218Z,16.81
2017-05-25T03:30:00.401Z,16.76
2017-05-25T03:30:26.493Z,16.84
2017-05-25T03:30:52.588Z,16.83
2017-05-25T03:31:18.692Z,16.86
2017-05-25T03:31:44.789Z,16.83
2017-05-25T03:32:10.903Z,16.81
2017-05-25T03:32:37.037Z,16.81
2017-05-25T03:33:03.191Z,16.78
2017-05-25T03:33:29.328Z,16.78
2017-05-25T03:33:55.463Z,16.74
2017-05-25T03:34:21.582Z,16.75
2017-05-25T03:34:47.717Z,16.74
2017-05-25T03:35:13.841Z,16.75
2017-05-25T03:35:39.979Z,16.79
2017-05-25T03:36:06.113Z,16.74
2017-05-25T03:36:32.239Z,16.66
2017-05-25T03:36:58.379Z,16.68
2017-05-25T03:37:24.541Z,16.61
2017-05-25T03:37:50.668Z,16.72
2017-05-25T03:38:16.760Z,16.74
2017-05-25T03:38:42.940Z,16.69
2017-05-25T03:39:09.102Z,16.68
2017-05-25T03:39:35.217Z,16.69
2017-05-25T03:40:01.316Z,16.66
2017-05-25T03:40:27.423Z,16.74
2017-05-25T03:40:53.542Z,16.74
2017-05-25T03:41:19.640Z,16.79
2017-05-25T03:41:45.747Z,16.74
2017-05-25T03:42:11.868Z,16.65
2017-05-25T03:42:37.961Z,16.68
2017-05-25T03:43:04.100Z,16.74
2017-05-25T03:43:30.251Z,16.75
2017-05-25T03:43:56.443Z,16.69
2017-05-25T03:44:22.541Z,16.72
2017-05-25T03:44:48.697Z,16.75
2017-05-25T03:45:14.851Z,16.72
2017-05-25T03:45:40.946Z,16.68
2017-05-25T03:46:07.036Z,16.66
2017-05-25T03:46:33.198Z,16.72
2017-05-25T03:46:59.297Z,16.64
2017-05-25T03:47:25.412Z,16.68
2017-05-25T03:47:51.600Z,16.61
2017-05-25T03:48:17.705Z,16.68
2017-05-25T03:48:43.865Z,16.66
2017-05-25T03:49:09.969Z,16.58
2017-05-25T03:49:36.101Z,16.61
2017-05-25T03:50:02.216Z,16.74
2017-05-25T03:50:28.315Z,16.71
2017-05-25T03:50:54.436Z,16.66
2017-05-25T03:51:20.569Z,16.66
2017-05-25T03:51:46.669Z,16.69
2017-05-25T03:52:12.761Z,16.68
2017-05-25T03:52:38.891Z,16.72
2017-05-25T03:53:05.080Z,16.76
2017-05-25T03:53:31.193Z,16.81
2017-05-25T03:53:57.341Z,16.84
2017-05-25T03:54:23.503Z,16.78
2017-05-25T03:54:49.618Z,16.78
2017-05-25T03:55:15.742Z,16.89
2017-05-25T03:55:41.849Z,16.79
2017-05-25T03:56:07.968Z,16.76
2017-05-25T03:56:34.097Z,16.81
2017-05-25T03:57:00.184Z,16.76
2017-05-25T03:57:26.314Z,16.81
2017-05-25T03:57:52.828Z,16.81
2017-05-25T03:58:18.971Z,16.84
2017-05-25T03:58:45.096Z,16.76
2017-05-25T03:59:11.254Z,16.83
2017-05-25T03:59:37.396Z,16.76
2017-05-25T04:00:03.562Z,16.76
2017-05-25T04:00:29.672Z,16.86
2017-05-25T04:00:55.824Z,16.87
2017-05-25T04:01:21.964Z,16.81
2017-05-25T04:01:48.100Z,16.78
2017-05-25T04:02:14.217Z,16.75
2017-05-25T04:02:40.404Z,16.79
2017-05-25T04:03:06.537Z,16.78
2017-05-25T04:03:32.693Z,16.83
2017-05-25T04:03:58.831Z,16.76
2017-05-25T04:04:24.952Z,16.74
2017-05-25T04:04:51.042Z,16.76
2017-05-25T04:05:17.173Z,16.72
2017-05-25T04:05:43.275Z,16.76
2017-05-25T04:06:09.365Z,16.79
2017-05-25T04:06:35.468Z,16.81
2017-05-25T04:07:01.575Z,16.84
2017-05-25T04:07:27.669Z,16.81
2017-05-25T04:07:53.793Z,16.84
2017-05-25T04:08:19.957Z,16.87
2017-05-25T04:08:46.064Z,16.79
2017-05-25T04:09:12.194Z,16.78
2017-05-25T04:09:38.330Z,16.76
2017-05-25T04:10:04.461Z,16.78
2017-05-25T04:10:30.593Z,16.79
2017-05-25T04:10:56.688Z,16.72
2017-05-25T04:11:22.783Z,16.71
2017-05-25T04:11:48.888Z,16.68
2017-05-25T04:12:14.980Z,16.71
2017-05-25T04:12:41.082Z,16.74
2017-05-25T04:13:07.203Z,16.75
2017-05-25T04:13:33.334Z,16.69
2017-05-25T04:13:59.469Z,16.75
2017-05-25T04:14:25.558Z,16.68
2017-05-25T04:14:51.710Z,16.71
2017-05-25T04:15:17.817Z,16.75
2017-05-25T04:15:43.939Z,16.74
2017-05-25T04:16:10.056Z,16.65
2017-05-25T04:16:36.191Z,16.72
2017-05-25T04:17:02.308Z,16.74
2017-05-25T04:17:28.442Z,16.64
2017-05-25T04:17:54.611Z,16.72
2017-05-25T04:18:20.735Z,16.74
2017-05-25T04:18:46.893Z,16.69
2017-05-25T04:19:13.036Z,16.69
2017-05-25T04:19:39.184Z,16.69
2017-05-25T04:20:05.316Z,16.74
2017-05-25T04:20:31.411Z,16.74
2017-05-25T04:20:57.524Z,16.68
2017-05-25T04:21:23.662Z,16.72
2017-05-25T04:21:49.789Z,16.78
2017-05-25T04:22:15.878Z,16.76
2017-05-25T04:22:41.985Z,16.68
2017-05-25T04:23:08.114Z,16.68
2017-05-25T04:23:34.228Z,16.66
2017-05-25T04:24:00.358Z,16.72
2017-05-25T04:24:26.492Z,16.78
2017-05-25T04:24:52.658Z,16.72
2017-05-25T04:25:18.781Z,16.69
2017-05-25T04:25:44.889Z,16.71
2017-05-25T04:26:10.979Z,16.71
2017-05-25T04:26:37.077Z,16.84
2017-05-25T04:27:03.210Z,16.71
2017-05-25T04:27:29.381Z,16.69
2017-05-25T04:27:55.497Z,16.65
2017-05-25T04:28:21.637Z,16.68
2017-05-25T04:28:47.735Z,16.66
2017-05-25T04:29:13.825Z,16.71
2017-05-25T04:29:39.957Z,16.72
2017-05-25T04:30:06.077Z,16.72
2017-05-25T04:30:32.238Z,16.76
2017-05-25T04:30:58.356Z,16.78
2017-05-25T04:31:24.498Z,16.84
2017-05-25T04:31:50.607Z,16.84
2017-05-25T04:32:16.703Z,16.87
2017-05-25T04:32:42.807Z,16.93
2017-05-25T04:33:08.964Z,16.84
2017-05-25T04:33:35.123Z,16.79
2017-05-25T04:34:01.265Z,16.79
2017-05-25T04:34:27.397Z,16.87
2017-05-25T04:34:53.559Z,16.76
2017-05-25T04:35:19.651Z,16.79
2017-05-25T04:35:45.775Z,16.79
2017-05-25T04:36:11.866Z,16.81
2017-05-25T04:36:37.974Z,16.76
2017-05-25T04:37:04.075Z,16.81
2017-05-25T04:37:30.193Z,16.74
2017-05-25T04:37:56.297Z,16.74
2017-05-25T04:38:22.433Z,16.72
2017-05-25T04:38:48.574Z,16.81
2017-05-25T04:39:14.700Z,16.81
2017-05-25T04:39:40.834Z,16.72
2017-05-25T04:40:06.924Z,16.74
2017-05-25T04:40:33.045Z,16.83
2017-05-25T04:40:59.142Z,16.86
2017-05-25T04:41:25.247Z,16.76
2017-05-25T04:41:51.356Z,16.71
2017-05-25T04:42:17.446Z,16.68
2017-05-25T04:42:43.572Z,16.76
2017-05-25T04:43:09.680Z,16.65
2017-05-25T04:43:35.772Z,16.66
2017-05-25T04:44:01.943Z,16.71
2017-05-25T04:44:28.135Z,16.74
2017-05-25T04:44:54.283Z,16.74
2017-05-25T04:45:20.374Z,16.79
2017-05-25T04:45:46.484Z,16.76
2017-05-25T04:46:12.608Z,16.84
2017-05-25T04:46:38.699Z,16.84
2017-05-25T04:47:04.809Z,16.79
2017-05-25T04:47:30.965Z,16.84
2017-05-25T04:47:57.081Z,16.9
2017-05-25T04:48:23.210Z,16.91
2017-05-25T04:48:49.317Z,16.86
2017-05-25T04:49:15.457Z,16.86
2017-05-25T04:49:41.547Z,16.81
2017-05-25T04:50:07.735Z,16.69
2017-05-25T04:50:33.825Z,16.66
2017-05-25T04:50:59.946Z,16.72
2017-05-25T04:51:26.081Z,16.69
2017-05-25T04:51:52.174Z,16.68
2017-05-25T04:52:18.308Z,16.64
2017-05-25T04:52:44.439Z,16.66
2017-05-25T04:53:10.565Z,16.66
2017-05-25T04:53:36.699Z,16.66
2017-05-25T04:54:02.845Z,16.6
2017-05-25T04:54:29.019Z,16.57
2017-05-25T04:54:55.155Z,16.72
2017-05-25T04:55:21.274Z,16.71
2017-05-25T04:55:47.463Z,16.68
2017-05-25T04:56:13.573Z,16.72
2017-05-25T04:56:39.669Z,16.72
2017-05-25T04:57:05.760Z,16.79
2017-05-25T04:57:31.866Z,16.79
2017-05-25T04:57:57.984Z,16.69
2017-05-25T04:58:24.121Z,16.68
2017-05-25T04:58:50.213Z,16.71
2017-05-25T04:59:16.303Z,16.65
2017-05-25T04:59:42.413Z,16.61
2017-05-25T05:00:08.538Z,16.68
2017-05-25T05:00:34.628Z,16.79
2017-05-25T05:01:00.735Z,16.65
2017-05-25T05:01:26.836Z,16.71
2017-05-25T05:01:52.952Z,16.83
2017-05-25T05:02:19.083Z,16.84
2017-05-25T05:02:45.246Z,16.84
2017-05-25T05:03:11.394Z,16.72
2017-05-25T05:03:37.571Z,16.79
2017-05-25T05:04:03.689Z,16.72
2017-05-25T05:04:29.822Z,16.74
2017-05-25T05:04:55.981Z,16.75
2017-05-25T05:05:22.095Z,16.84
2017-05-25T05:05:48.227Z,16.87
2017-05-25T05:06:14.396Z,16.84
2017-05-25T05:06:40.506Z,16.81
2017-05-25T05:07:06.608Z,16.83
2017-05-25T05:07:32.714Z,16.81
2017-05-25T05:07:58.803Z,16.79
2017-05-25T05:08:24.926Z,16.84
2017-05-25T05:08:51.062Z,16.86
2017-05-25T05:09:17.184Z,16.89
2017-05-25T05:09:43.300Z,16.9
2017-05-25T05:10:09.409Z,16.83
2017-05-25T05:10:35.505Z,16.86
2017-05-25T05:11:01.622Z,16.87
2017-05-25T05:11:27.729Z,16.86
2017-05-25T05:11:53.858Z,16.81
2017-05-25T05:12:19.974Z,16.89
2017-05-25T05:12:46.137Z,16.87
2017-05-25T05:13:12.244Z,16.75
2017-05-25T05:14:34.270Z,16.83
2017-05-25T05:15:00.399Z,16.9
2017-05-25T05:15:26.529Z,16.93
2017-05-25T05:15:52.665Z,16.9
2017-05-25T05:16:18.809Z,16.9
2017-05-25T05:16:44.906Z,16.79
2017-05-25T05:17:11.016Z,16.9
2017-05-25T05:17:37.111Z,16.87
2017-05-25T05:18:03.228Z,16.94
2017-05-25T05:18:29.366Z,16.97
2017-05-25T05:18:55.524Z,16.86
2017-05-25T05:19:21.665Z,16.93
2017-05-25T05:19:47.848Z,17.08
2017-05-25T05:20:13.975Z,17.05
2017-05-25T05:20:40.126Z,17.05
2017-05-25T05:21:06.246Z,17.04
2017-05-25T05:21:32.338Z,17.05
2017-05-25T05:21:58.446Z,17.08
2017-05-25T05:22:24.555Z,16.99
2017-05-25T05:22:50.647Z,16.97
2017-05-25T05:23:16.777Z,16.99
2017-05-25T05:23:42.877Z,17.02
2017-05-25T05:24:08.994Z,16.94
2017-05-25T05:24:35.171Z,16.96
2017-05-25T05:25:01.332Z,16.91
2017-05-25T05:25:27.420Z,16.94
2017-05-25T05:25:53.576Z,17.01
2017-05-25T05:26:19.669Z,16.97
2017-05-25T05:26:45.776Z,16.96
2017-05-25T05:27:11.904Z,16.87
2017-05-25T05:27:38.018Z,16.79
2017-05-25T05:28:04.198Z,16.91
2017-05-25T05:28:30.305Z,16.96
2017-05-25T05:28:56.445Z,16.96
2017-05-25T05:29:22.545Z,16.84
2017-05-25T05:29:48.679Z,16.93
2017-05-25T05:30:14.794Z,16.87
2017-05-25T05:30:40.891Z,16.9
2017-05-25T05:31:07.002Z,16.9
2017-05-25T05:31:33.126Z,16.94
2017-05-25T05:31:59.232Z,16.83
2017-05-25T05:32:25.345Z,16.9
2017-05-25T05:32:51.522Z,17.05
2017-05-25T05:33:17.685Z,16.93
2017-05-25T05:33:43.806Z,17.04
2017-05-25T05:34:09.954Z,16.99
2017-05-25T05:34:36.089Z,16.97
2017-05-25T05:35:02.208Z,16.94
2017-05-25T05:35:28.296Z,17.04
2017-05-25T05:35:54.404Z,16.97
2017-05-25T05:36:20.503Z,17.08
2017-05-25T05:36:46.595Z,16.94
2017-05-25T05:37:12.725Z,16.94
2017-05-25T05:37:38.843Z,16.99
2017-05-25T05:38:05.006Z,17.05